sensor_id;sensor_type;location;lat;lon;timestamp;temperature;humidity
3086;DHT22;52812;48.960;9.108;2023-03-13T00:03:47;6.40;99.90
3086;DHT22;52812;48.960;9.108;2023-03-13T00:06:13;6.50;99.90
3086;DHT22;52812;48.960;9.108;2023-03-13T00:08:38;6.60;99.90
3086;DHT22;52812;48.960;9.108;2023-03-13T00:11:06;6.50;99.90
3086;DHT22;52812;48.960;9.108;2023-03-13T00:13:32;6.50;99.90
3086;DHT22;52812;48.960;9.108;2023-03-13T00:16:03;6.40;99.90
3086;DHT22;52812;48.960;9.108;2023-03-13T00:18:30;6.40;99.90
3086;DHT22;52812;48.960;9.108;2023-03-13T00:21:04;6.40;99.90
3086;DHT22;52812;48.960;9.108;2023-03-13T00:23:31;6.40;99.90
3086;DHT22;52812;48.960;9.108;2023-03-13T00:25:58;6.50;99.90
3086;DHT22;52812;48.960;9.108;2023-03-13T00:28:26;6.50;99.90
3086;DHT22;52812;48.960;9.108;2023-03-13T00:31:03;6.60;99.90
3086;DHT22;52812;48.960;9.108;2023-03-13T00:33:37;6.70;99.90
3086;DHT22;52812;48.960;9.108;2023-03-13T00:36:06;6.80;99.90
3086;DHT22;52812;48.960;9.108;2023-03-13T00:38:32;6.80;99.90
3086;DHT22;52812;48.960;9.108;2023-03-13T00:43:28;6.80;99.90
3086;DHT22;52812;48.960;9.108;2023-03-13T00:45:54;6.90;99.90
3086;DHT22;52812;48.960;9.108;2023-03-13T00:48:21;6.90;99.90
3086;DHT22;52812;48.960;9.108;2023-03-13T00:50:46;6.90;99.90
3086;DHT22;52812;48.960;9.108;2023-03-13T00:53:12;6.90;99.90
3086;DHT22;52812;48.960;9.108;2023-03-13T00:55:38;7.00;99.90
3086;DHT22;52812;48.960;9.108;2023-03-13T00:58:03;7.00;99.90
3086;DHT22;52812;48.960;9.108;2023-03-13T01:00:29;7.00;99.90
3086;DHT22;52812;48.960;9.108;2023-03-13T01:02:54;7.00;99.90
3086;DHT22;52812;48.960;9.108;2023-03-13T01:05:20;7.00;99.90
3086;DHT22;52812;48.960;9.108;2023-03-13T01:07:46;7.00;99.90
3086;DHT22;52812;48.960;9.108;2023-03-13T01:10:11;7.10;99.90
3086;DHT22;52812;48.960;9.108;2023-03-13T01:12:37;7.10;99.90
3086;DHT22;52812;48.960;9.108;2023-03-13T01:15:02;7.20;99.90
3086;DHT22;52812;48.960;9.108;2023-03-13T01:17:28;7.20;99.90
3086;DHT22;52812;48.960;9.108;2023-03-13T01:19:55;7.20;99.90
3086;DHT22;52812;48.960;9.108;2023-03-13T01:22:21;7.30;99.90
3086;DHT22;52812;48.960;9.108;2023-03-13T01:24:47;7.40;99.90
3086;DHT22;52812;48.960;9.108;2023-03-13T01:27:17;7.40;99.90
3086;DHT22;52812;48.960;9.108;2023-03-13T01:29:42;7.50;99.90
3086;DHT22;52812;48.960;9.108;2023-03-13T01:32:08;7.60;99.90
3086;DHT22;52812;48.960;9.108;2023-03-13T01:34:34;7.60;99.90
3086;DHT22;52812;48.960;9.108;2023-03-13T01:37:00;7.70;99.90
3086;DHT22;52812;48.960;9.108;2023-03-13T01:39:25;7.70;99.90
3086;DHT22;52812;48.960;9.108;2023-03-13T01:41:51;7.70;99.90
3086;DHT22;52812;48.960;9.108;2023-03-13T01:44:23;7.80;99.90
3086;DHT22;52812;48.960;9.108;2023-03-13T01:46:49;7.70;99.90
3086;DHT22;52812;48.960;9.108;2023-03-13T01:49:22;7.80;99.90
3086;DHT22;52812;48.960;9.108;2023-03-13T01:51:58;7.80;99.90
3086;DHT22;52812;48.960;9.108;2023-03-13T01:54:34;7.80;99.90
3086;DHT22;52812;48.960;9.108;2023-03-13T01:57:21;7.80;99.90
3086;DHT22;52812;48.960;9.108;2023-03-13T01:59:58;7.90;99.90
3086;DHT22;52812;48.960;9.108;2023-03-13T02:02:26;7.90;99.90
3086;DHT22;52812;48.960;9.108;2023-03-13T02:04:56;7.90;99.90
3086;DHT22;52812;48.960;9.108;2023-03-13T02:07:40;7.90;99.90
3086;DHT22;52812;48.960;9.108;2023-03-13T02:10:09;7.90;99.90
3086;DHT22;52812;48.960;9.108;2023-03-13T02:12:37;7.90;99.90
3086;DHT22;52812;48.960;9.108;2023-03-13T02:15:18;8.00;99.90
3086;DHT22;52812;48.960;9.108;2023-03-13T02:17:45;8.00;99.90
3086;DHT22;52812;48.960;9.108;2023-03-13T02:20:12;8.00;99.90
3086;DHT22;52812;48.960;9.108;2023-03-13T02:22:57;8.00;99.90
3086;DHT22;52812;48.960;9.108;2023-03-13T02:28:02;8.10;99.90
3086;DHT22;52812;48.960;9.108;2023-03-13T02:30:29;8.10;99.90
3086;DHT22;52812;48.960;9.108;2023-03-13T02:32:55;8.20;99.90
3086;DHT22;52812;48.960;9.108;2023-03-13T02:35:21;8.20;99.90
3086;DHT22;52812;48.960;9.108;2023-03-13T02:37:50;8.20;99.90
3086;DHT22;52812;48.960;9.108;2023-03-13T02:40:22;8.20;99.90
3086;DHT22;52812;48.960;9.108;2023-03-13T02:42:49;8.10;99.90
3086;DHT22;52812;48.960;9.108;2023-03-13T02:45:16;8.10;99.90
3086;DHT22;52812;48.960;9.108;2023-03-13T02:47:42;8.10;99.90
3086;DHT22;52812;48.960;9.108;2023-03-13T02:50:09;8.10;99.90
3086;DHT22;52812;48.960;9.108;2023-03-13T02:52:47;8.10;99.90
3086;DHT22;52812;48.960;9.108;2023-03-13T02:55:27;8.10;99.90
3086;DHT22;52812;48.960;9.108;2023-03-13T02:57:54;8.10;99.90
3086;DHT22;52812;48.960;9.108;2023-03-13T03:00:19;8.20;99.90
3086;DHT22;52812;48.960;9.108;2023-03-13T03:02:50;8.20;99.90
3086;DHT22;52812;48.960;9.108;2023-03-13T03:05:16;8.10;99.90
3086;DHT22;52812;48.960;9.108;2023-03-13T03:07:42;8.20;99.90
3086;DHT22;52812;48.960;9.108;2023-03-13T03:10:08;8.20;99.90
3086;DHT22;52812;48.960;9.108;2023-03-13T03:12:34;8.30;99.90
3086;DHT22;52812;48.960;9.108;2023-03-13T03:14:59;8.30;99.90
3086;DHT22;52812;48.960;9.108;2023-03-13T03:17:25;8.30;99.90
3086;DHT22;52812;48.960;9.108;2023-03-13T03:19:50;8.20;99.90
3086;DHT22;52812;48.960;9.108;2023-03-13T03:22:16;8.20;99.90
3086;DHT22;52812;48.960;9.108;2023-03-13T03:24:42;8.10;99.90
3086;DHT22;52812;48.960;9.108;2023-03-13T03:27:07;8.10;99.90
3086;DHT22;52812;48.960;9.108;2023-03-13T03:29:33;8.10;99.90
3086;DHT22;52812;48.960;9.108;2023-03-13T03:31:58;8.00;99.90
3086;DHT22;52812;48.960;9.108;2023-03-13T03:34:24;8.00;99.90
3086;DHT22;52812;48.960;9.108;2023-03-13T03:36:50;8.00;99.90
3086;DHT22;52812;48.960;9.108;2023-03-13T03:39:15;7.90;99.90
3086;DHT22;52812;48.960;9.108;2023-03-13T03:41:41;7.90;99.90
3086;DHT22;52812;48.960;9.108;2023-03-13T03:44:07;7.80;99.90
3086;DHT22;52812;48.960;9.108;2023-03-13T03:46:32;7.80;99.90
3086;DHT22;52812;48.960;9.108;2023-03-13T03:48:58;7.80;99.90
3086;DHT22;52812;48.960;9.108;2023-03-13T03:51:24;7.70;99.90
3086;DHT22;52812;48.960;9.108;2023-03-13T03:53:49;7.80;99.90
3086;DHT22;52812;48.960;9.108;2023-03-13T03:56:15;7.80;99.90
3086;DHT22;52812;48.960;9.108;2023-03-13T03:58:41;7.80;99.90
3086;DHT22;52812;48.960;9.108;2023-03-13T04:01:06;7.90;99.90
3086;DHT22;52812;48.960;9.108;2023-03-13T04:03:32;7.80;99.90
3086;DHT22;52812;48.960;9.108;2023-03-13T04:05:58;8.00;99.90
3086;DHT22;52812;48.960;9.108;2023-03-13T04:08:24;8.00;99.90
3086;DHT22;52812;48.960;9.108;2023-03-13T04:10:50;7.90;99.90
3086;DHT22;52812;48.960;9.108;2023-03-13T04:13:16;7.90;99.90
3086;DHT22;52812;48.960;9.108;2023-03-13T04:15:42;7.90;99.90
3086;DHT22;52812;48.960;9.108;2023-03-13T04:18:07;7.90;99.90
3086;DHT22;52812;48.960;9.108;2023-03-13T04:20:34;7.90;99.90
3086;DHT22;52812;48.960;9.108;2023-03-13T04:22:59;7.90;99.90
3086;DHT22;52812;48.960;9.108;2023-03-13T04:25:25;8.00;99.90
3086;DHT22;52812;48.960;9.108;2023-03-13T04:27:51;8.00;99.90
3086;DHT22;52812;48.960;9.108;2023-03-13T04:30:17;8.00;99.90
3086;DHT22;52812;48.960;9.108;2023-03-13T04:32:42;8.00;99.90
3086;DHT22;52812;48.960;9.108;2023-03-13T04:35:08;8.00;99.90
3086;DHT22;52812;48.960;9.108;2023-03-13T04:37:34;8.10;99.90
3086;DHT22;52812;48.960;9.108;2023-03-13T04:39:59;8.20;99.90
3086;DHT22;52812;48.960;9.108;2023-03-13T04:42:26;8.30;99.90
3086;DHT22;52812;48.960;9.108;2023-03-13T04:44:52;8.40;99.90
3086;DHT22;52812;48.960;9.108;2023-03-13T04:47:18;8.50;99.90
3086;DHT22;52812;48.960;9.108;2023-03-13T04:49:43;8.60;99.90
3086;DHT22;52812;48.960;9.108;2023-03-13T04:52:09;8.80;99.90
3086;DHT22;52812;48.960;9.108;2023-03-13T04:54:35;9.00;99.90
3086;DHT22;52812;48.960;9.108;2023-03-13T04:57:00;9.10;99.90
3086;DHT22;52812;48.960;9.108;2023-03-13T04:59:26;9.30;99.90
3086;DHT22;52812;48.960;9.108;2023-03-13T05:01:52;9.40;99.90
3086;DHT22;52812;48.960;9.108;2023-03-13T05:04:17;9.40;99.90
3086;DHT22;52812;48.960;9.108;2023-03-13T05:06:43;9.60;99.90
3086;DHT22;52812;48.960;9.108;2023-03-13T05:09:08;9.80;99.90
3086;DHT22;52812;48.960;9.108;2023-03-13T05:11:34;9.90;99.90
3086;DHT22;52812;48.960;9.108;2023-03-13T05:14:00;10.00;99.90
3086;DHT22;52812;48.960;9.108;2023-03-13T05:16:26;10.20;99.90
3086;DHT22;52812;48.960;9.108;2023-03-13T05:18:51;10.30;99.90
3086;DHT22;52812;48.960;9.108;2023-03-13T05:21:17;10.30;99.90
3086;DHT22;52812;48.960;9.108;2023-03-13T05:23:43;10.40;99.90
3086;DHT22;52812;48.960;9.108;2023-03-13T05:26:08;10.40;99.90
3086;DHT22;52812;48.960;9.108;2023-03-13T05:28:34;10.40;99.90
3086;DHT22;52812;48.960;9.108;2023-03-13T05:31:00;10.40;99.90
3086;DHT22;52812;48.960;9.108;2023-03-13T05:33:25;10.40;99.90
3086;DHT22;52812;48.960;9.108;2023-03-13T05:35:51;10.40;99.90
3086;DHT22;52812;48.960;9.108;2023-03-13T05:38:16;10.50;99.90
3086;DHT22;52812;48.960;9.108;2023-03-13T05:40:42;10.50;99.90
3086;DHT22;52812;48.960;9.108;2023-03-13T05:43:08;10.50;99.90
3086;DHT22;52812;48.960;9.108;2023-03-13T05:45:34;10.50;99.90
3086;DHT22;52812;48.960;9.108;2023-03-13T05:47:59;10.50;99.90
3086;DHT22;52812;48.960;9.108;2023-03-13T05:50:25;10.50;99.90
3086;DHT22;52812;48.960;9.108;2023-03-13T05:52:51;10.50;99.90
3086;DHT22;52812;48.960;9.108;2023-03-13T05:55:18;10.50;99.90
3086;DHT22;52812;48.960;9.108;2023-03-13T05:57:45;10.50;99.90
3086;DHT22;52812;48.960;9.108;2023-03-13T06:00:11;10.60;99.90
3086;DHT22;52812;48.960;9.108;2023-03-13T06:02:37;10.70;99.90
3086;DHT22;52812;48.960;9.108;2023-03-13T06:05:03;10.80;99.90
3086;DHT22;52812;48.960;9.108;2023-03-13T06:07:29;10.90;99.90
3086;DHT22;52812;48.960;9.108;2023-03-13T06:09:54;11.00;99.90
3086;DHT22;52812;48.960;9.108;2023-03-13T06:12:20;11.10;99.90
3086;DHT22;52812;48.960;9.108;2023-03-13T06:14:46;11.10;99.90
3086;DHT22;52812;48.960;9.108;2023-03-13T06:17:11;11.10;99.90
3086;DHT22;52812;48.960;9.108;2023-03-13T06:19:37;11.20;99.90
3086;DHT22;52812;48.960;9.108;2023-03-13T06:22:03;11.20;99.90
3086;DHT22;52812;48.960;9.108;2023-03-13T06:24:28;11.20;99.90
3086;DHT22;52812;48.960;9.108;2023-03-13T06:26:54;11.20;99.90
3086;DHT22;52812;48.960;9.108;2023-03-13T06:29:20;11.20;99.90
3086;DHT22;52812;48.960;9.108;2023-03-13T06:31:45;11.30;99.90
3086;DHT22;52812;48.960;9.108;2023-03-13T06:34:12;11.30;99.90
3086;DHT22;52812;48.960;9.108;2023-03-13T06:36:38;11.30;99.90
3086;DHT22;52812;48.960;9.108;2023-03-13T06:39:03;11.30;99.90
3086;DHT22;52812;48.960;9.108;2023-03-13T06:41:29;11.40;99.90
3086;DHT22;52812;48.960;9.108;2023-03-13T06:43:55;11.40;99.90
3086;DHT22;52812;48.960;9.108;2023-03-13T06:46:22;11.30;99.90
3086;DHT22;52812;48.960;9.108;2023-03-13T06:48:49;11.40;99.90
3086;DHT22;52812;48.960;9.108;2023-03-13T06:51:17;11.40;99.90
3086;DHT22;52812;48.960;9.108;2023-03-13T06:53:43;11.40;99.90
3086;DHT22;52812;48.960;9.108;2023-03-13T06:56:09;11.40;99.90
3086;DHT22;52812;48.960;9.108;2023-03-13T06:58:35;11.30;99.90
3086;DHT22;52812;48.960;9.108;2023-03-13T07:01:09;11.30;99.90
3086;DHT22;52812;48.960;9.108;2023-03-13T07:03:36;11.30;99.90
3086;DHT22;52812;48.960;9.108;2023-03-13T07:06:03;11.30;99.90
3086;DHT22;52812;48.960;9.108;2023-03-13T07:08:30;11.30;99.90
3086;DHT22;52812;48.960;9.108;2023-03-13T07:11:01;11.30;99.90
3086;DHT22;52812;48.960;9.108;2023-03-13T07:13:27;11.40;99.90
3086;DHT22;52812;48.960;9.108;2023-03-13T07:15:53;11.40;99.90
3086;DHT22;52812;48.960;9.108;2023-03-13T07:18:19;11.30;99.90
3086;DHT22;52812;48.960;9.108;2023-03-13T07:20:51;11.40;99.90
3086;DHT22;52812;48.960;9.108;2023-03-13T07:23:18;11.40;99.90
3086;DHT22;52812;48.960;9.108;2023-03-13T07:25:55;11.40;99.90
3086;DHT22;52812;48.960;9.108;2023-03-13T07:28:21;11.50;99.90
3086;DHT22;52812;48.960;9.108;2023-03-13T07:30:47;11.50;99.90
3086;DHT22;52812;48.960;9.108;2023-03-13T07:33:14;11.60;99.90
3086;DHT22;52812;48.960;9.108;2023-03-13T07:35:40;11.70;99.90
3086;DHT22;52812;48.960;9.108;2023-03-13T07:38:05;11.80;99.90
3086;DHT22;52812;48.960;9.108;2023-03-13T07:40:31;11.90;99.90
3086;DHT22;52812;48.960;9.108;2023-03-13T07:42:57;12.00;99.90
3086;DHT22;52812;48.960;9.108;2023-03-13T07:45:22;12.00;99.90
3086;DHT22;52812;48.960;9.108;2023-03-13T07:47:48;12.10;99.90
3086;DHT22;52812;48.960;9.108;2023-03-13T07:50:14;12.10;99.90
3086;DHT22;52812;48.960;9.108;2023-03-13T07:52:39;12.10;99.90
3086;DHT22;52812;48.960;9.108;2023-03-13T07:55:05;12.20;99.90
3086;DHT22;52812;48.960;9.108;2023-03-13T07:57:31;12.30;99.90
3086;DHT22;52812;48.960;9.108;2023-03-13T07:59:56;12.30;99.90
3086;DHT22;52812;48.960;9.108;2023-03-13T08:02:22;12.40;99.90
3086;DHT22;52812;48.960;9.108;2023-03-13T08:04:51;12.40;99.90
3086;DHT22;52812;48.960;9.108;2023-03-13T08:07:17;12.50;99.90
3086;DHT22;52812;48.960;9.108;2023-03-13T08:09:43;12.60;99.90
3086;DHT22;52812;48.960;9.108;2023-03-13T08:12:08;12.70;99.90
3086;DHT22;52812;48.960;9.108;2023-03-13T08:14:34;12.80;99.90
3086;DHT22;52812;48.960;9.108;2023-03-13T08:17:00;12.90;99.90
3086;DHT22;52812;48.960;9.108;2023-03-13T08:19:25;13.00;99.90
3086;DHT22;52812;48.960;9.108;2023-03-13T08:21:51;13.10;99.90
3086;DHT22;52812;48.960;9.108;2023-03-13T08:24:16;13.20;99.90
3086;DHT22;52812;48.960;9.108;2023-03-13T08:26:42;13.30;99.90
3086;DHT22;52812;48.960;9.108;2023-03-13T08:29:10;13.40;99.90
3086;DHT22;52812;48.960;9.108;2023-03-13T08:31:45;13.50;99.90
3086;DHT22;52812;48.960;9.108;2023-03-13T08:34:12;13.70;99.90
3086;DHT22;52812;48.960;9.108;2023-03-13T08:36:39;13.80;99.90
3086;DHT22;52812;48.960;9.108;2023-03-13T08:39:08;13.90;99.90
3086;DHT22;52812;48.960;9.108;2023-03-13T08:41:36;13.90;99.90
3086;DHT22;52812;48.960;9.108;2023-03-13T08:44:03;13.90;99.90
3086;DHT22;52812;48.960;9.108;2023-03-13T08:46:30;14.00;99.90
3086;DHT22;52812;48.960;9.108;2023-03-13T08:48:56;14.00;99.90
3086;DHT22;52812;48.960;9.108;2023-03-13T08:51:24;14.10;99.90
3086;DHT22;52812;48.960;9.108;2023-03-13T08:53:50;14.10;99.90
3086;DHT22;52812;48.960;9.108;2023-03-13T08:56:18;14.20;99.90
3086;DHT22;52812;48.960;9.108;2023-03-13T08:58:49;14.30;99.90
3086;DHT22;52812;48.960;9.108;2023-03-13T09:01:15;14.30;99.90
3086;DHT22;52812;48.960;9.108;2023-03-13T09:03:41;14.40;99.90
3086;DHT22;52812;48.960;9.108;2023-03-13T09:06:08;14.30;99.90
3086;DHT22;52812;48.960;9.108;2023-03-13T09:08:35;14.30;99.90
3086;DHT22;52812;48.960;9.108;2023-03-13T09:11:10;14.30;99.90
3086;DHT22;52812;48.960;9.108;2023-03-13T09:13:39;14.30;99.90
3086;DHT22;52812;48.960;9.108;2023-03-13T09:16:33;14.20;99.90
3086;DHT22;52812;48.960;9.108;2023-03-13T09:18:59;14.30;99.90
3086;DHT22;52812;48.960;9.108;2023-03-13T09:21:30;14.40;99.90
3086;DHT22;52812;48.960;9.108;2023-03-13T09:23:56;14.50;99.90
3086;DHT22;52812;48.960;9.108;2023-03-13T09:26:24;14.80;99.90
3086;DHT22;52812;48.960;9.108;2023-03-13T09:28:51;14.90;99.90
3086;DHT22;52812;48.960;9.108;2023-03-13T09:31:21;15.00;99.90
3086;DHT22;52812;48.960;9.108;2023-03-13T09:33:49;15.00;99.90
3086;DHT22;52812;48.960;9.108;2023-03-13T09:36:15;15.00;99.90
3086;DHT22;52812;48.960;9.108;2023-03-13T09:38:42;15.10;99.90
3086;DHT22;52812;48.960;9.108;2023-03-13T09:46:22;15.40;99.90
3086;DHT22;52812;48.960;9.108;2023-03-13T09:48:53;15.80;99.90
3086;DHT22;52812;48.960;9.108;2023-03-13T09:51:39;16.20;99.90
3086;DHT22;52812;48.960;9.108;2023-03-13T09:54:21;16.40;99.90
3086;DHT22;52812;48.960;9.108;2023-03-13T09:56:52;16.50;99.90
3086;DHT22;52812;48.960;9.108;2023-03-13T09:59:25;16.40;99.90
3086;DHT22;52812;48.960;9.108;2023-03-13T10:01:53;16.30;99.90
3086;DHT22;52812;48.960;9.108;2023-03-13T10:04:28;16.20;99.90
3086;DHT22;52812;48.960;9.108;2023-03-13T10:06:55;16.20;99.90
3086;DHT22;52812;48.960;9.108;2023-03-13T10:09:29;16.10;99.90
3086;DHT22;52812;48.960;9.108;2023-03-13T10:19:47;16.70;99.90
3086;DHT22;52812;48.960;9.108;2023-03-13T10:22:18;16.80;99.90
3086;DHT22;52812;48.960;9.108;2023-03-13T10:25:10;17.00;99.90
3086;DHT22;52812;48.960;9.108;2023-03-13T10:27:46;17.10;99.90
3086;DHT22;52812;48.960;9.108;2023-03-13T10:32:48;17.40;99.90
3086;DHT22;52812;48.960;9.108;2023-03-13T10:35:30;17.50;99.90
3086;DHT22;52812;48.960;9.108;2023-03-13T10:38:03;17.60;99.90
3086;DHT22;52812;48.960;9.108;2023-03-13T10:40:29;17.80;99.90
3086;DHT22;52812;48.960;9.108;2023-03-13T10:43:14;17.70;99.90
3086;DHT22;52812;48.960;9.108;2023-03-13T10:45:41;17.80;99.90
3086;DHT22;52812;48.960;9.108;2023-03-13T10:48:23;17.80;99.90
3086;DHT22;52812;48.960;9.108;2023-03-13T10:50:54;18.00;99.90
3086;DHT22;52812;48.960;9.108;2023-03-13T10:55:48;18.10;99.90
3086;DHT22;52812;48.960;9.108;2023-03-13T10:58:33;18.00;99.90
3086;DHT22;52812;48.960;9.108;2023-03-13T11:01:26;18.00;99.90
3086;DHT22;52812;48.960;9.108;2023-03-13T11:03:54;18.00;99.90
3086;DHT22;52812;48.960;9.108;2023-03-13T11:06:32;18.10;99.90
3086;DHT22;52812;48.960;9.108;2023-03-13T11:09:18;18.20;99.90
3086;DHT22;52812;48.960;9.108;2023-03-13T11:11:51;18.30;99.90
3086;DHT22;52812;48.960;9.108;2023-03-13T11:14:22;18.30;99.90
3086;DHT22;52812;48.960;9.108;2023-03-13T11:23:53;18.50;99.90
3086;DHT22;52812;48.960;9.108;2023-03-13T11:28:39;18.50;99.90
3086;DHT22;52812;48.960;9.108;2023-03-13T11:31:14;18.40;99.90
3086;DHT22;52812;48.960;9.108;2023-03-13T11:34:39;18.30;99.90
3086;DHT22;52812;48.960;9.108;2023-03-13T11:37:04;18.20;99.90
3086;DHT22;52812;48.960;9.108;2023-03-13T11:45:07;18.10;99.90
3086;DHT22;52812;48.960;9.108;2023-03-13T11:47:54;18.30;99.90
3086;DHT22;52812;48.960;9.108;2023-03-13T11:50:35;18.40;99.90
3086;DHT22;52812;48.960;9.108;2023-03-13T11:58:47;18.50;99.90
3086;DHT22;52812;48.960;9.108;2023-03-13T12:01:18;18.60;99.90
3086;DHT22;52812;48.960;9.108;2023-03-13T12:06:33;18.70;99.90
3086;DHT22;52812;48.960;9.108;2023-03-13T12:09:32;18.80;99.90
3086;DHT22;52812;48.960;9.108;2023-03-13T12:12:28;18.90;99.90
3086;DHT22;52812;48.960;9.108;2023-03-13T12:15:17;19.00;99.90
3086;DHT22;52812;48.960;9.108;2023-03-13T12:20:26;19.10;99.90
3086;DHT22;52812;48.960;9.108;2023-03-13T12:23:20;19.10;99.90
3086;DHT22;52812;48.960;9.108;2023-03-13T12:26:07;19.00;99.90
3086;DHT22;52812;48.960;9.108;2023-03-13T12:28:48;19.10;99.90
3086;DHT22;52812;48.960;9.108;2023-03-13T12:31:33;19.10;99.90
3086;DHT22;52812;48.960;9.108;2023-03-13T12:41:44;19.50;99.90
3086;DHT22;52812;48.960;9.108;2023-03-13T12:44:17;19.50;99.90
3086;DHT22;52812;48.960;9.108;2023-03-13T12:46:44;19.50;99.90
3086;DHT22;52812;48.960;9.108;2023-03-13T12:52:41;19.60;99.90
3086;DHT22;52812;48.960;9.108;2023-03-13T13:00:35;19.30;99.90
3086;DHT22;52812;48.960;9.108;2023-03-13T13:08:36;19.30;99.90
3086;DHT22;52812;48.960;9.108;2023-03-13T13:17:12;19.60;99.90
3086;DHT22;52812;48.960;9.108;2023-03-13T13:25:29;19.60;99.90
3086;DHT22;52812;48.960;9.108;2023-03-13T13:28:21;19.60;99.90
3086;DHT22;52812;48.960;9.108;2023-03-13T13:30:48;19.60;99.90
3086;DHT22;52812;48.960;9.108;2023-03-13T13:35:43;19.70;99.90
3086;DHT22;52812;48.960;9.108;2023-03-13T13:43:33;19.90;99.90
3086;DHT22;52812;48.960;9.108;2023-03-13T13:46:23;20.00;99.90
3086;DHT22;52812;48.960;9.108;2023-03-13T13:51:31;19.80;99.90
3086;DHT22;52812;48.960;9.108;2023-03-13T13:54:02;19.70;99.90
3086;DHT22;52812;48.960;9.108;2023-03-13T13:56:30;19.50;99.90
3086;DHT22;52812;48.960;9.108;2023-03-13T14:01:45;19.30;99.90
3086;DHT22;52812;48.960;9.108;2023-03-13T14:04:22;19.20;99.90
3086;DHT22;52812;48.960;9.108;2023-03-13T14:06:51;19.10;99.90
3086;DHT22;52812;48.960;9.108;2023-03-13T14:11:54;19.10;99.90
3086;DHT22;52812;48.960;9.108;2023-03-13T14:14:21;19.20;99.90
3086;DHT22;52812;48.960;9.108;2023-03-13T14:16:52;19.30;99.90
3086;DHT22;52812;48.960;9.108;2023-03-13T14:19:29;19.40;99.90
3086;DHT22;52812;48.960;9.108;2023-03-13T14:22:04;19.30;99.90
3086;DHT22;52812;48.960;9.108;2023-03-13T14:24:29;19.20;99.90
3086;DHT22;52812;48.960;9.108;2023-03-13T14:26:55;19.10;99.90
3086;DHT22;52812;48.960;9.108;2023-03-13T14:29:21;19.10;99.90
3086;DHT22;52812;48.960;9.108;2023-03-13T14:31:59;19.00;99.90
3086;DHT22;52812;48.960;9.108;2023-03-13T14:34:26;19.10;99.90
3086;DHT22;52812;48.960;9.108;2023-03-13T14:36:55;19.10;99.90
3086;DHT22;52812;48.960;9.108;2023-03-13T14:39:43;19.20;99.90
3086;DHT22;52812;48.960;9.108;2023-03-13T14:42:12;19.30;99.90
3086;DHT22;52812;48.960;9.108;2023-03-13T14:44:38;19.30;99.90
3086;DHT22;52812;48.960;9.108;2023-03-13T14:47:22;19.30;99.90
3086;DHT22;52812;48.960;9.108;2023-03-13T14:49:57;19.20;99.90
3086;DHT22;52812;48.960;9.108;2023-03-13T14:52:26;19.10;99.90
3086;DHT22;52812;48.960;9.108;2023-03-13T14:54:57;19.00;99.90
3086;DHT22;52812;48.960;9.108;2023-03-13T14:57:24;19.00;99.90
3086;DHT22;52812;48.960;9.108;2023-03-13T14:59:51;18.90;99.90
3086;DHT22;52812;48.960;9.108;2023-03-13T15:02:22;18.90;99.90
3086;DHT22;52812;48.960;9.108;2023-03-13T15:04:58;18.80;99.90
3086;DHT22;52812;48.960;9.108;2023-03-13T15:07:41;18.80;99.90
3086;DHT22;52812;48.960;9.108;2023-03-13T15:10:31;18.70;99.90
3086;DHT22;52812;48.960;9.108;2023-03-13T15:12:57;18.70;99.90
3086;DHT22;52812;48.960;9.108;2023-03-13T15:15:24;18.70;99.90
3086;DHT22;52812;48.960;9.108;2023-03-13T15:17:49;18.60;99.90
3086;DHT22;52812;48.960;9.108;2023-03-13T15:20:16;18.60;99.90
3086;DHT22;52812;48.960;9.108;2023-03-13T15:22:44;18.70;99.90
3086;DHT22;52812;48.960;9.108;2023-03-13T15:25:16;18.60;99.90
3086;DHT22;52812;48.960;9.108;2023-03-13T15:27:42;18.50;99.90
3086;DHT22;52812;48.960;9.108;2023-03-13T15:30:08;18.40;99.90
3086;DHT22;52812;48.960;9.108;2023-03-13T15:32:36;18.40;99.90
3086;DHT22;52812;48.960;9.108;2023-03-13T15:35:30;18.40;99.90
3086;DHT22;52812;48.960;9.108;2023-03-13T15:37:58;18.40;99.90
3086;DHT22;52812;48.960;9.108;2023-03-13T15:40:25;18.40;99.90
3086;DHT22;52812;48.960;9.108;2023-03-13T15:42:52;18.40;99.90
3086;DHT22;52812;48.960;9.108;2023-03-13T15:45:18;18.40;99.90
3086;DHT22;52812;48.960;9.108;2023-03-13T15:47:44;18.40;99.90
3086;DHT22;52812;48.960;9.108;2023-03-13T15:50:16;18.10;99.90
3086;DHT22;52812;48.960;9.108;2023-03-13T15:52:42;18.20;99.90
3086;DHT22;52812;48.960;9.108;2023-03-13T15:55:12;18.20;99.90
3086;DHT22;52812;48.960;9.108;2023-03-13T15:57:45;18.20;99.90
3086;DHT22;52812;48.960;9.108;2023-03-13T16:00:25;18.20;99.90
3086;DHT22;52812;48.960;9.108;2023-03-13T16:02:50;18.20;99.90
3086;DHT22;52812;48.960;9.108;2023-03-13T16:05:17;18.10;99.90
3086;DHT22;52812;48.960;9.108;2023-03-13T16:07:42;18.30;99.90
3086;DHT22;52812;48.960;9.108;2023-03-13T16:10:34;18.40;99.90
3086;DHT22;52812;48.960;9.108;2023-03-13T16:13:00;18.40;99.90
3086;DHT22;52812;48.960;9.108;2023-03-13T16:15:27;18.40;99.90
3086;DHT22;52812;48.960;9.108;2023-03-13T16:17:53;18.40;99.90
3086;DHT22;52812;48.960;9.108;2023-03-13T16:20:21;18.40;99.90
3086;DHT22;52812;48.960;9.108;2023-03-13T16:22:48;18.30;99.90
3086;DHT22;52812;48.960;9.108;2023-03-13T16:25:14;18.30;99.90
3086;DHT22;52812;48.960;9.108;2023-03-13T16:27:39;18.10;99.90
3086;DHT22;52812;48.960;9.108;2023-03-13T16:30:14;18.10;99.90
3086;DHT22;52812;48.960;9.108;2023-03-13T16:32:41;17.90;99.90
3086;DHT22;52812;48.960;9.108;2023-03-13T16:35:06;17.90;99.90
3086;DHT22;52812;48.960;9.108;2023-03-13T16:37:32;17.80;99.90
3086;DHT22;52812;48.960;9.108;2023-03-13T16:39:57;17.80;99.90
3086;DHT22;52812;48.960;9.108;2023-03-13T16:42:23;17.70;99.90
3086;DHT22;52812;48.960;9.108;2023-03-13T16:44:49;17.70;99.90
3086;DHT22;52812;48.960;9.108;2023-03-13T16:49:45;17.60;99.90
3086;DHT22;52812;48.960;9.108;2023-03-13T16:52:15;17.70;99.90
3086;DHT22;52812;48.960;9.108;2023-03-13T16:54:42;17.70;99.90
3086;DHT22;52812;48.960;9.108;2023-03-13T16:57:10;17.80;99.90
3086;DHT22;52812;48.960;9.108;2023-03-13T16:59:36;17.70;99.90
3086;DHT22;52812;48.960;9.108;2023-03-13T17:02:01;17.60;99.90
3086;DHT22;52812;48.960;9.108;2023-03-13T17:04:27;17.40;99.90
3086;DHT22;52812;48.960;9.108;2023-03-13T17:06:52;17.30;99.90
3086;DHT22;52812;48.960;9.108;2023-03-13T17:09:18;17.20;99.90
3086;DHT22;52812;48.960;9.108;2023-03-13T17:11:44;17.00;99.90
3086;DHT22;52812;48.960;9.108;2023-03-13T17:14:10;16.90;99.90
3086;DHT22;52812;48.960;9.108;2023-03-13T17:16:38;16.70;99.90
3086;DHT22;52812;48.960;9.108;2023-03-13T17:19:05;16.50;99.90
3086;DHT22;52812;48.960;9.108;2023-03-13T17:21:31;16.40;99.90
3086;DHT22;52812;48.960;9.108;2023-03-13T17:23:57;16.20;99.90
3086;DHT22;52812;48.960;9.108;2023-03-13T17:26:33;16.10;99.90
3086;DHT22;52812;48.960;9.108;2023-03-13T17:28:59;15.80;99.90
3086;DHT22;52812;48.960;9.108;2023-03-13T17:31:26;15.60;99.90
3086;DHT22;52812;48.960;9.108;2023-03-13T17:33:53;15.60;99.90
3086;DHT22;52812;48.960;9.108;2023-03-13T17:36:20;15.50;99.90
3086;DHT22;52812;48.960;9.108;2023-03-13T17:38:51;15.70;99.90
3086;DHT22;52812;48.960;9.108;2023-03-13T17:41:19;15.70;99.90
3086;DHT22;52812;48.960;9.108;2023-03-13T17:43:46;15.60;99.90
3086;DHT22;52812;48.960;9.108;2023-03-13T17:46:17;15.60;99.90